sensor_id;sensor_type;location;lat;lon;timestamp;P1;durP1;ratioP1;P2;durP2;ratioP2
11451;SDS011;5782;47.872;11.478;2022-07-23T00:01:33;7.68;;;6.95;;
11451;SDS011;5782;47.872;11.478;2022-07-23T00:03:59;9.18;;;6.97;;
11451;SDS011;5782;47.872;11.478;2022-07-23T00:06:26;7.82;;;7.13;;
11451;SDS011;5782;47.872;11.478;2022-07-23T00:08:52;7.50;;;6.90;;
11451;SDS011;5782;47.872;11.478;2022-07-23T00:11:18;7.90;;;7.15;;
11451;SDS011;5782;47.872;11.478;2022-07-23T00:13:44;7.55;;;6.78;;
11451;SDS011;5782;47.872;11.478;2022-07-23T00:16:10;6.93;;;6.32;;
11451;SDS011;5782;47.872;11.478;2022-07-23T00:18:36;7.88;;;7.18;;
11451;SDS011;5782;47.872;11.478;2022-07-23T00:21:02;8.30;;;7.50;;
11451;SDS011;5782;47.872;11.478;2022-07-23T00:23:29;8.20;;;7.40;;
11451;SDS011;5782;47.872;11.478;2022-07-23T00:25:55;7.85;;;7.15;;
11451;SDS011;5782;47.872;11.478;2022-07-23T00:28:22;7.45;;;6.75;;
11451;SDS011;5782;47.872;11.478;2022-07-23T00:30:48;7.68;;;6.93;;
11451;SDS011;5782;47.872;11.478;2022-07-23T00:33:14;7.13;;;6.43;;
11451;SDS011;5782;47.872;11.478;2022-07-23T00:35:40;7.63;;;6.93;;
11451;SDS011;5782;47.872;11.478;2022-07-23T00:38:07;7.57;;;6.88;;
11451;SDS011;5782;47.872;11.478;2022-07-23T00:40:34;7.63;;;6.82;;
11451;SDS011;5782;47.872;11.478;2022-07-23T00:43:01;8.40;;;7.65;;
11451;SDS011;5782;47.872;11.478;2022-07-23T00:45:27;8.75;;;7.85;;
11451;SDS011;5782;47.872;11.478;2022-07-23T00:47:53;8.20;;;7.47;;
11451;SDS011;5782;47.872;11.478;2022-07-23T00:50:19;9.23;;;8.32;;
11451;SDS011;5782;47.872;11.478;2022-07-23T00:52:45;8.05;;;7.25;;
11451;SDS011;5782;47.872;11.478;2022-07-23T00:55:11;7.68;;;6.95;;
11451;SDS011;5782;47.872;11.478;2022-07-23T00:57:38;8.07;;;7.28;;
11451;SDS011;5782;47.872;11.478;2022-07-23T01:00:05;9.15;;;7.03;;
11451;SDS011;5782;47.872;11.478;2022-07-23T01:02:31;9.10;;;8.07;;
11451;SDS011;5782;47.872;11.478;2022-07-23T01:04:58;8.35;;;7.57;;
11451;SDS011;5782;47.872;11.478;2022-07-23T01:07:24;8.25;;;7.50;;
11451;SDS011;5782;47.872;11.478;2022-07-23T01:09:51;8.35;;;7.03;;
11451;SDS011;5782;47.872;11.478;2022-07-23T01:12:17;8.52;;;7.63;;
11451;SDS011;5782;47.872;11.478;2022-07-23T01:14:43;10.65;;;8.20;;
11451;SDS011;5782;47.872;11.478;2022-07-23T01:17:09;10.00;;;8.57;;
11451;SDS011;5782;47.872;11.478;2022-07-23T01:19:35;11.13;;;9.90;;
11451;SDS011;5782;47.872;11.478;2022-07-23T01:22:02;10.95;;;9.02;;
11451;SDS011;5782;47.872;11.478;2022-07-23T01:24:29;10.65;;;9.52;;
11451;SDS011;5782;47.872;11.478;2022-07-23T01:26:55;9.82;;;8.77;;
11451;SDS011;5782;47.872;11.478;2022-07-23T01:29:21;9.82;;;8.52;;
11451;SDS011;5782;47.872;11.478;2022-07-23T01:31:47;8.93;;;7.22;;
11451;SDS011;5782;47.872;11.478;2022-07-23T01:34:13;8.82;;;7.53;;
11451;SDS011;5782;47.872;11.478;2022-07-23T01:36:39;8.30;;;7.20;;
11451;SDS011;5782;47.872;11.478;2022-07-23T01:39:06;8.77;;;7.43;;
11451;SDS011;5782;47.872;11.478;2022-07-23T01:41:32;8.15;;;7.35;;
11451;SDS011;5782;47.872;11.478;2022-07-23T01:43:58;7.75;;;6.95;;
11451;SDS011;5782;47.872;11.478;2022-07-23T01:46:24;7.43;;;6.72;;
11451;SDS011;5782;47.872;11.478;2022-07-23T01:48:50;7.68;;;6.85;;
11451;SDS011;5782;47.872;11.478;2022-07-23T01:51:16;6.60;;;6.00;;
11451;SDS011;5782;47.872;11.478;2022-07-23T01:53:42;9.00;;;6.45;;
11451;SDS011;5782;47.872;11.478;2022-07-23T01:56:08;6.90;;;6.03;;
11451;SDS011;5782;47.872;11.478;2022-07-23T01:58:34;8.13;;;6.15;;
11451;SDS011;5782;47.872;11.478;2022-07-23T02:01:00;6.05;;;5.47;;
11451;SDS011;5782;47.872;11.478;2022-07-23T02:03:27;6.97;;;6.03;;
11451;SDS011;5782;47.872;11.478;2022-07-23T02:05:53;7.03;;;5.97;;
11451;SDS011;5782;47.872;11.478;2022-07-23T02:08:19;6.88;;;6.28;;
11451;SDS011;5782;47.872;11.478;2022-07-23T02:10:45;7.20;;;5.60;;
11451;SDS011;5782;47.872;11.478;2022-07-23T02:13:11;5.70;;;5.18;;
11451;SDS011;5782;47.872;11.478;2022-07-23T02:15:37;6.75;;;5.28;;
11451;SDS011;5782;47.872;11.478;2022-07-23T02:18:03;6.03;;;5.50;;
11451;SDS011;5782;47.872;11.478;2022-07-23T02:20:29;8.02;;;5.55;;
11451;SDS011;5782;47.872;11.478;2022-07-23T02:22:55;6.43;;;5.82;;
11451;SDS011;5782;47.872;11.478;2022-07-23T02:25:21;6.32;;;5.72;;
11451;SDS011;5782;47.872;11.478;2022-07-23T02:27:47;7.65;;;6.07;;
11451;SDS011;5782;47.872;11.478;2022-07-23T02:30:13;7.75;;;6.20;;
11451;SDS011;5782;47.872;11.478;2022-07-23T02:32:39;9.88;;;6.35;;
11451;SDS011;5782;47.872;11.478;2022-07-23T02:35:06;7.20;;;6.32;;
11451;SDS011;5782;47.872;11.478;2022-07-23T02:37:32;6.90;;;6.22;;
11451;SDS011;5782;47.872;11.478;2022-07-23T02:39:58;7.30;;;6.10;;
11451;SDS011;5782;47.872;11.478;2022-07-23T02:42:24;8.57;;;6.25;;
11451;SDS011;5782;47.872;11.478;2022-07-23T02:44:51;7.10;;;6.40;;
11451;SDS011;5782;47.872;11.478;2022-07-23T02:47:17;8.65;;;6.90;;
11451;SDS011;5782;47.872;11.478;2022-07-23T02:49:43;7.07;;;6.38;;
11451;SDS011;5782;47.872;11.478;2022-07-23T02:52:09;7.75;;;6.97;;
11451;SDS011;5782;47.872;11.478;2022-07-23T02:54:35;6.82;;;6.13;;
11451;SDS011;5782;47.872;11.478;2022-07-23T02:57:02;7.68;;;6.97;;
11451;SDS011;5782;47.872;11.478;2022-07-23T02:59:30;7.38;;;6.68;;
11451;SDS011;5782;47.872;11.478;2022-07-23T03:01:56;9.40;;;6.85;;
11451;SDS011;5782;47.872;11.478;2022-07-23T03:04:22;7.97;;;6.65;;
11451;SDS011;5782;47.872;11.478;2022-07-23T03:06:48;6.97;;;6.35;;
11451;SDS011;5782;47.872;11.478;2022-07-23T03:09:14;7.57;;;6.88;;
11451;SDS011;5782;47.872;11.478;2022-07-23T03:11:40;7.80;;;6.80;;
11451;SDS011;5782;47.872;11.478;2022-07-23T03:14:06;8.60;;;6.80;;
11451;SDS011;5782;47.872;11.478;2022-07-23T03:16:33;7.72;;;6.72;;
11451;SDS011;5782;47.872;11.478;2022-07-23T03:18:59;7.38;;;6.70;;
11451;SDS011;5782;47.872;11.478;2022-07-23T03:21:25;7.28;;;6.55;;
11451;SDS011;5782;47.872;11.478;2022-07-23T03:23:51;7.50;;;6.68;;
11451;SDS011;5782;47.872;11.478;2022-07-23T03:26:17;6.80;;;6.13;;
11451;SDS011;5782;47.872;11.478;2022-07-23T03:28:43;6.97;;;6.35;;
11451;SDS011;5782;47.872;11.478;2022-07-23T03:31:09;8.00;;;6.20;;
11451;SDS011;5782;47.872;11.478;2022-07-23T03:33:35;7.57;;;6.57;;
11451;SDS011;5782;47.872;11.478;2022-07-23T03:36:01;12.35;;;7.13;;
11451;SDS011;5782;47.872;11.478;2022-07-23T03:38:27;7.35;;;6.60;;
11451;SDS011;5782;47.872;11.478;2022-07-23T03:40:53;9.40;;;6.90;;
11451;SDS011;5782;47.872;11.478;2022-07-23T03:43:19;6.82;;;6.20;;
11451;SDS011;5782;47.872;11.478;2022-07-23T03:45:45;7.15;;;6.45;;
11451;SDS011;5782;47.872;11.478;2022-07-23T03:48:11;8.80;;;6.70;;
11451;SDS011;5782;47.872;11.478;2022-07-23T03:50:37;8.05;;;6.65;;
11451;SDS011;5782;47.872;11.478;2022-07-23T03:53:03;8.13;;;6.90;;
11451;SDS011;5782;47.872;11.478;2022-07-23T03:55:29;8.38;;;6.22;;
11451;SDS011;5782;47.872;11.478;2022-07-23T03:57:55;7.63;;;6.70;;
11451;SDS011;5782;47.872;11.478;2022-07-23T04:00:21;9.57;;;6.70;;
11451;SDS011;5782;47.872;11.478;2022-07-23T04:02:47;9.80;;;7.82;;
11451;SDS011;5782;47.872;11.478;2022-07-23T04:05:13;8.88;;;7.68;;
11451;SDS011;5782;47.872;11.478;2022-07-23T04:07:39;8.63;;;7.75;;
11451;SDS011;5782;47.872;11.478;2022-07-23T04:10:05;9.70;;;7.50;;
11451;SDS011;5782;47.872;11.478;2022-07-23T04:12:31;8.05;;;7.25;;
11451;SDS011;5782;47.872;11.478;2022-07-23T04:14:57;8.70;;;7.80;;
11451;SDS011;5782;47.872;11.478;2022-07-23T04:17:23;9.73;;;7.88;;
11451;SDS011;5782;47.872;11.478;2022-07-23T04:19:49;8.85;;;7.95;;
11451;SDS011;5782;47.872;11.478;2022-07-23T04:22:15;8.60;;;7.80;;
11451;SDS011;5782;47.872;11.478;2022-07-23T04:24:41;8.05;;;7.35;;
11451;SDS011;5782;47.872;11.478;2022-07-23T04:27:07;8.95;;;8.07;;
11451;SDS011;5782;47.872;11.478;2022-07-23T04:29:33;8.38;;;7.53;;
11451;SDS011;5782;47.872;11.478;2022-07-23T04:31:59;8.25;;;7.45;;
11451;SDS011;5782;47.872;11.478;2022-07-23T04:34:25;8.27;;;7.57;;
11451;SDS011;5782;47.872;11.478;2022-07-23T04:36:51;8.60;;;7.72;;
11451;SDS011;5782;47.872;11.478;2022-07-23T04:39:18;7.75;;;7.05;;
11451;SDS011;5782;47.872;11.478;2022-07-23T04:41:44;8.98;;;7.50;;
11451;SDS011;5782;47.872;11.478;2022-07-23T04:44:10;8.43;;;7.63;;
11451;SDS011;5782;47.872;11.478;2022-07-23T04:46:36;8.82;;;7.93;;
11451;SDS011;5782;47.872;11.478;2022-07-23T04:49:02;8.85;;;8.05;;
11451;SDS011;5782;47.872;11.478;2022-07-23T04:51:28;9.05;;;8.15;;
11451;SDS011;5782;47.872;11.478;2022-07-23T04:53:54;8.45;;;7.65;;
11451;SDS011;5782;47.872;11.478;2022-07-23T04:56:21;8.93;;;8.02;;
11451;SDS011;5782;47.872;11.478;2022-07-23T04:58:47;8.70;;;7.82;;
11451;SDS011;5782;47.872;11.478;2022-07-23T05:01:13;8.73;;;7.93;;
11451;SDS011;5782;47.872;11.478;2022-07-23T05:03:39;8.85;;;8.05;;
11451;SDS011;5782;47.872;11.478;2022-07-23T05:06:05;9.60;;;8.60;;
11451;SDS011;5782;47.872;11.478;2022-07-23T05:08:31;8.50;;;7.70;;
11451;SDS011;5782;47.872;11.478;2022-07-23T05:10:57;8.25;;;7.45;;
11451;SDS011;5782;47.872;11.478;2022-07-23T05:13:23;8.50;;;7.53;;
11451;SDS011;5782;47.872;11.478;2022-07-23T05:15:49;8.18;;;7.47;;
11451;SDS011;5782;47.872;11.478;2022-07-23T05:18:15;8.32;;;7.50;;
11451;SDS011;5782;47.872;11.478;2022-07-23T05:20:41;9.18;;;7.28;;
11451;SDS011;5782;47.872;11.478;2022-07-23T05:23:07;8.68;;;7.78;;
11451;SDS011;5782;47.872;11.478;2022-07-23T05:25:33;8.38;;;6.97;;
11451;SDS011;5782;47.872;11.478;2022-07-23T05:27:59;7.70;;;6.90;;
11451;SDS011;5782;47.872;11.478;2022-07-23T05:30:25;8.10;;;7.30;;
11451;SDS011;5782;47.872;11.478;2022-07-23T05:32:51;8.82;;;7.22;;
11451;SDS011;5782;47.872;11.478;2022-07-23T05:35:17;8.40;;;7.00;;
11451;SDS011;5782;47.872;11.478;2022-07-23T05:37:43;7.70;;;6.63;;
11451;SDS011;5782;47.872;11.478;2022-07-23T05:40:10;8.55;;;7.75;;
11451;SDS011;5782;47.872;11.478;2022-07-23T05:42:37;7.70;;;7.00;;
11451;SDS011;5782;47.872;11.478;2022-07-23T05:45:03;7.70;;;7.00;;
11451;SDS011;5782;47.872;11.478;2022-07-23T05:47:43;9.13;;;7.63;;
11451;SDS011;5782;47.872;11.478;2022-07-23T05:50:09;8.07;;;7.38;;
11451;SDS011;5782;47.872;11.478;2022-07-23T05:52:35;7.85;;;7.15;;
11451;SDS011;5782;47.872;11.478;2022-07-23T05:55:01;7.90;;;7.10;;
11451;SDS011;5782;47.872;11.478;2022-07-23T05:57:27;8.00;;;7.30;;
11451;SDS011;5782;47.872;11.478;2022-07-23T05:59:53;8.35;;;7.55;;
11451;SDS011;5782;47.872;11.478;2022-07-23T06:02:19;7.85;;;7.15;;
11451;SDS011;5782;47.872;11.478;2022-07-23T06:04:45;7.57;;;6.88;;
11451;SDS011;5782;47.872;11.478;2022-07-23T06:07:11;7.95;;;7.25;;
11451;SDS011;5782;47.872;11.478;2022-07-23T06:09:37;8.13;;;7.35;;
11451;SDS011;5782;47.872;11.478;2022-07-23T06:12:03;8.48;;;7.68;;
11451;SDS011;5782;47.872;11.478;2022-07-23T06:14:29;7.88;;;7.18;;
11451;SDS011;5782;47.872;11.478;2022-07-23T06:16:55;7.97;;;7.18;;
11451;SDS011;5782;47.872;11.478;2022-07-23T06:19:21;8.50;;;7.68;;
11451;SDS011;5782;47.872;11.478;2022-07-23T06:21:47;8.38;;;7.57;;
11451;SDS011;5782;47.872;11.478;2022-07-23T06:24:14;8.90;;;8.00;;
11451;SDS011;5782;47.872;11.478;2022-07-23T06:26:39;8.27;;;7.47;;
11451;SDS011;5782;47.872;11.478;2022-07-23T06:29:06;10.73;;;7.75;;
11451;SDS011;5782;47.872;11.478;2022-07-23T06:31:32;7.55;;;6.78;;
11451;SDS011;5782;47.872;11.478;2022-07-23T06:33:58;7.65;;;6.80;;
11451;SDS011;5782;47.872;11.478;2022-07-23T06:36:24;8.00;;;7.20;;
11451;SDS011;5782;47.872;11.478;2022-07-23T06:38:50;8.20;;;7.40;;
11451;SDS011;5782;47.872;11.478;2022-07-23T06:41:16;8.38;;;7.57;;
11451;SDS011;5782;47.872;11.478;2022-07-23T06:43:42;8.23;;;7.43;;
11451;SDS011;5782;47.872;11.478;2022-07-23T06:46:08;8.13;;;7.43;;
11451;SDS011;5782;47.872;11.478;2022-07-23T06:48:34;8.55;;;7.35;;
11451;SDS011;5782;47.872;11.478;2022-07-23T06:51:01;8.18;;;7.47;;
11451;SDS011;5782;47.872;11.478;2022-07-23T06:53:27;8.80;;;6.82;;
11451;SDS011;5782;47.872;11.478;2022-07-23T06:55:53;7.90;;;6.95;;
11451;SDS011;5782;47.872;11.478;2022-07-23T06:58:19;8.15;;;6.93;;
11451;SDS011;5782;47.872;11.478;2022-07-23T07:00:45;7.60;;;6.78;;
11451;SDS011;5782;47.872;11.478;2022-07-23T07:03:11;8.85;;;7.35;;
11451;SDS011;5782;47.872;11.478;2022-07-23T07:05:37;7.20;;;6.60;;
11451;SDS011;5782;47.872;11.478;2022-07-23T07:08:05;8.23;;;7.38;;
11451;SDS011;5782;47.872;11.478;2022-07-23T07:10:31;7.80;;;7.10;;
11451;SDS011;5782;47.872;11.478;2022-07-23T07:12:57;8.50;;;7.35;;
11451;SDS011;5782;47.872;11.478;2022-07-23T07:15:23;8.95;;;6.95;;
11451;SDS011;5782;47.872;11.478;2022-07-23T07:17:49;8.60;;;7.72;;
11451;SDS011;5782;47.872;11.478;2022-07-23T07:20:15;8.02;;;7.22;;
11451;SDS011;5782;47.872;11.478;2022-07-23T07:22:41;7.88;;;7.18;;
11451;SDS011;5782;47.872;11.478;2022-07-23T07:25:08;7.95;;;7.22;;
11451;SDS011;5782;47.872;11.478;2022-07-23T07:27:36;8.43;;;7.63;;
11451;SDS011;5782;47.872;11.478;2022-07-23T07:30:03;7.82;;;7.03;;
11451;SDS011;5782;47.872;11.478;2022-07-23T07:32:29;8.20;;;7.43;;
11451;SDS011;5782;47.872;11.478;2022-07-23T07:34:57;7.97;;;7.28;;
11451;SDS011;5782;47.872;11.478;2022-07-23T07:37:23;7.65;;;6.95;;
11451;SDS011;5782;47.872;11.478;2022-07-23T07:39:49;8.23;;;7.00;;
11451;SDS011;5782;47.872;11.478;2022-07-23T07:42:15;8.18;;;7.38;;
11451;SDS011;5782;47.872;11.478;2022-07-23T07:44:41;8.10;;;7.15;;
11451;SDS011;5782;47.872;11.478;2022-07-23T07:47:07;9.00;;;7.30;;
11451;SDS011;5782;47.872;11.478;2022-07-23T07:49:33;8.35;;;7.50;;
11451;SDS011;5782;47.872;11.478;2022-07-23T07:51:59;8.10;;;7.40;;
11451;SDS011;5782;47.872;11.478;2022-07-23T07:54:25;8.88;;;7.93;;
11451;SDS011;5782;47.872;11.478;2022-07-23T07:56:51;8.20;;;7.40;;
11451;SDS011;5782;47.872;11.478;2022-07-23T07:59:17;8.23;;;7.43;;
11451;SDS011;5782;47.872;11.478;2022-07-23T08:01:43;8.48;;;7.60;;
11451;SDS011;5782;47.872;11.478;2022-07-23T08:04:09;9.15;;;8.27;;
11451;SDS011;5782;47.872;11.478;2022-07-23T08:06:35;9.60;;;7.57;;
11451;SDS011;5782;47.872;11.478;2022-07-23T08:09:01;9.05;;;8.20;;
11451;SDS011;5782;47.872;11.478;2022-07-23T08:11:27;9.25;;;8.30;;
11451;SDS011;5782;47.872;11.478;2022-07-23T08:13:53;9.35;;;8.27;;
11451;SDS011;5782;47.872;11.478;2022-07-23T08:16:19;8.05;;;7.35;;
11451;SDS011;5782;47.872;11.478;2022-07-23T08:18:45;8.68;;;7.88;;
11451;SDS011;5782;47.872;11.478;2022-07-23T08:21:11;8.90;;;8.00;;
11451;SDS011;5782;47.872;11.478;2022-07-23T08:23:37;8.63;;;7.80;;
11451;SDS011;5782;47.872;11.478;2022-07-23T08:26:03;8.20;;;7.40;;
11451;SDS011;5782;47.872;11.478;2022-07-23T08:28:29;7.97;;;7.28;;
11451;SDS011;5782;47.872;11.478;2022-07-23T08:30:59;8.27;;;7.57;;
11451;SDS011;5782;47.872;11.478;2022-07-23T08:33:25;8.27;;;6.97;;
11451;SDS011;5782;47.872;11.478;2022-07-23T08:35:52;7.40;;;6.78;;
11451;SDS011;5782;47.872;11.478;2022-07-23T08:38:19;7.82;;;7.03;;
11451;SDS011;5782;47.872;11.478;2022-07-23T08:40:47;7.30;;;6.60;;
11451;SDS011;5782;47.872;11.478;2022-07-23T08:43:14;7.43;;;6.72;;
11451;SDS011;5782;47.872;11.478;2022-07-23T08:45:42;8.90;;;7.65;;
11451;SDS011;5782;47.872;11.478;2022-07-23T08:48:11;7.63;;;6.93;;
11451;SDS011;5782;47.872;11.478;2022-07-23T08:50:37;7.40;;;6.70;;
11451;SDS011;5782;47.872;11.478;2022-07-23T08:53:06;8.27;;;6.72;;
11451;SDS011;5782;47.872;11.478;2022-07-23T08:55:32;7.50;;;6.80;;
11451;SDS011;5782;47.872;11.478;2022-07-23T08:57:59;7.22;;;6.53;;
11451;SDS011;5782;47.872;11.478;2022-07-23T09:00:25;7.90;;;7.10;;
11451;SDS011;5782;47.872;11.478;2022-07-23T09:02:51;8.05;;;7.20;;
11451;SDS011;5782;47.872;11.478;2022-07-23T09:05:18;7.82;;;7.05;;
11451;SDS011;5782;47.872;11.478;2022-07-23T09:13:22;7.07;;;6.38;;
11451;SDS011;5782;47.872;11.478;2022-07-23T09:15:49;8.00;;;7.00;;
11451;SDS011;5782;47.872;11.478;2022-07-23T09:18:16;7.10;;;6.40;;
11451;SDS011;5782;47.872;11.478;2022-07-23T09:20:43;7.22;;;6.63;;
11451;SDS011;5782;47.872;11.478;2022-07-23T09:23:09;7.40;;;6.70;;
11451;SDS011;5782;47.872;11.478;2022-07-23T09:25:35;7.30;;;6.57;;
11451;SDS011;5782;47.872;11.478;2022-07-23T09:28:01;7.50;;;6.80;;
11451;SDS011;5782;47.872;11.478;2022-07-23T09:30:29;7.20;;;6.50;;
11451;SDS011;5782;47.872;11.478;2022-07-23T09:33:05;7.03;;;6.38;;
11451;SDS011;5782;47.872;11.478;2022-07-23T09:38:34;7.13;;;6.47;;
11451;SDS011;5782;47.872;11.478;2022-07-23T09:41:07;7.32;;;6.63;;
11451;SDS011;5782;47.872;11.478;2022-07-23T09:43:33;6.68;;;5.97;;
11451;SDS011;5782;47.872;11.478;2022-07-23T09:46:18;7.70;;;6.35;;
11451;SDS011;5782;47.872;11.478;2022-07-23T09:48:45;7.63;;;6.03;;
11451;SDS011;5782;47.872;11.478;2022-07-23T09:51:11;7.07;;;6.38;;
11451;SDS011;5782;47.872;11.478;2022-07-23T09:53:40;8.25;;;6.38;;
11451;SDS011;5782;47.872;11.478;2022-07-23T09:56:07;6.95;;;6.35;;
11451;SDS011;5782;47.872;11.478;2022-07-23T09:58:33;6.43;;;5.90;;
11451;SDS011;5782;47.872;11.478;2022-07-23T10:01:03;6.13;;;5.63;;
11451;SDS011;5782;47.872;11.478;2022-07-23T10:03:29;6.78;;;6.18;;
11451;SDS011;5782;47.872;11.478;2022-07-23T10:05:56;6.35;;;5.75;;
11451;SDS011;5782;47.872;11.478;2022-07-23T10:08:22;6.10;;;5.50;;
11451;SDS011;5782;47.872;11.478;2022-07-23T10:10:48;5.85;;;5.38;;
11451;SDS011;5782;47.872;11.478;2022-07-23T10:13:16;5.65;;;5.15;;
11451;SDS011;5782;47.872;11.478;2022-07-23T10:16:00;5.65;;;4.82;;
11451;SDS011;5782;47.872;11.478;2022-07-23T10:18:26;5.55;;;5.05;;
11451;SDS011;5782;47.872;11.478;2022-07-23T10:20:52;5.30;;;4.80;;
11451;SDS011;5782;47.872;11.478;2022-07-23T10:25:46;6.97;;;4.97;;
11451;SDS011;5782;47.872;11.478;2022-07-23T10:30:50;5.47;;;4.85;;
11451;SDS011;5782;47.872;11.478;2022-07-23T10:33:24;7.05;;;5.15;;
11451;SDS011;5782;47.872;11.478;2022-07-23T10:35:58;6.15;;;5.22;;
11451;SDS011;5782;47.872;11.478;2022-07-23T10:38:33;5.75;;;4.60;;
11451;SDS011;5782;47.872;11.478;2022-07-23T10:41:02;5.50;;;4.55;;
11451;SDS011;5782;47.872;11.478;2022-07-23T10:43:29;5.05;;;4.65;;
11451;SDS011;5782;47.872;11.478;2022-07-23T10:45:55;5.70;;;5.22;;
11451;SDS011;5782;47.872;11.478;2022-07-23T10:48:24;5.60;;;5.10;;
11451;SDS011;5782;47.872;11.478;2022-07-23T10:56:15;5.57;;;5.00;;
11451;SDS011;5782;47.872;11.478;2022-07-23T10:58:45;5.90;;;5.28;;
11451;SDS011;5782;47.872;11.478;2022-07-23T11:01:30;7.15;;;5.22;;
11451;SDS011;5782;47.872;11.478;2022-07-23T11:03:57;6.43;;;5.43;;
11451;SDS011;5782;47.872;11.478;2022-07-23T11:06:24;6.18;;;5.28;;
11451;SDS011;5782;47.872;11.478;2022-07-23T11:09:22;5.93;;;5.32;;
11451;SDS011;5782;47.872;11.478;2022-07-23T11:11:36;6.72;;;5.72;;
11451;SDS011;5782;47.872;11.478;2022-07-23T11:14:02;6.75;;;6.13;;
11451;SDS011;5782;47.872;11.478;2022-07-23T11:16:28;6.90;;;6.22;;
11451;SDS011;5782;47.872;11.478;2022-07-23T11:18:55;6.45;;;5.72;;
11451;SDS011;5782;47.872;11.478;2022-07-23T11:32:01;6.63;;;5.90;;
11451;SDS011;5782;47.872;11.478;2022-07-23T11:36:59;7.10;;;6.40;;
11451;SDS011;5782;47.872;11.478;2022-07-23T11:39:26;7.07;;;6.38;;
11451;SDS011;5782;47.872;11.478;2022-07-23T11:41:53;8.65;;;6.38;;
11451;SDS011;5782;47.872;11.478;2022-07-23T11:47:04;7.53;;;5.90;;
11451;SDS011;5782;47.872;11.478;2022-07-23T11:49:31;6.95;;;6.35;;
11451;SDS011;5782;47.872;11.478;2022-07-23T11:54:32;7.43;;;6.30;;
11451;SDS011;5782;47.872;11.478;2022-07-23T11:56:59;7.78;;;6.65;;
11451;SDS011;5782;47.872;11.478;2022-07-23T11:59:26;7.00;;;6.40;;
11451;SDS011;5782;47.872;11.478;2022-07-23T12:01:56;7.35;;;6.68;;
11451;SDS011;5782;47.872;11.478;2022-07-23T12:04:23;7.07;;;6.30;;
11451;SDS011;5782;47.872;11.478;2022-07-23T12:06:49;7.22;;;6.38;;
11451;SDS011;5782;47.872;11.478;2022-07-23T12:09:15;7.68;;;6.97;;
11451;SDS011;5782;47.872;11.478;2022-07-23T12:11:56;7.82;;;6.47;;
11451;SDS011;5782;47.872;11.478;2022-07-23T12:14:22;6.63;;;6.03;;
11451;SDS011;5782;47.872;11.478;2022-07-23T12:17:06;7.15;;;6.47;;
11451;SDS011;5782;47.872;11.478;2022-07-23T12:19:32;7.45;;;6.75;;
11451;SDS011;5782;47.872;11.478;2022-07-23T12:21:58;7.05;;;6.45;;
11451;SDS011;5782;47.872;11.478;2022-07-23T12:24:24;6.88;;;6.28;;
11451;SDS011;5782;47.872;11.478;2022-07-23T12:27:11;7.05;;;6.35;;
11451;SDS011;5782;47.872;11.478;2022-07-23T12:29:38;7.05;;;6.25;;
11451;SDS011;5782;47.872;11.478;2022-07-23T12:35:04;7.88;;;6.65;;
11451;SDS011;5782;47.872;11.478;2022-07-23T12:37:32;7.03;;;6.25;;
11451;SDS011;5782;47.872;11.478;2022-07-23T12:40:07;7.05;;;6.35;;
11451;SDS011;5782;47.872;11.478;2022-07-23T12:42:43;7.07;;;6.38;;
11451;SDS011;5782;47.872;11.478;2022-07-23T12:45:10;7.63;;;5.85;;
11451;SDS011;5782;47.872;11.478;2022-07-23T12:53:11;6.50;;;5.90;;
11451;SDS011;5782;47.872;11.478;2022-07-23T12:55:38;6.43;;;5.65;;
11451;SDS011;5782;47.872;11.478;2022-07-23T13:00:52;6.72;;;6.13;;
11451;SDS011;5782;47.872;11.478;2022-07-23T13:05:53;11.10;;;6.47;;
11451;SDS011;5782;47.872;11.478;2022-07-23T13:08:19;6.18;;;5.60;;
11451;SDS011;5782;47.872;11.478;2022-07-23T13:10:45;6.25;;;5.63;;
11451;SDS011;5782;47.872;11.478;2022-07-23T13:13:13;8.73;;;6.10;;
11451;SDS011;5782;47.872;11.478;2022-07-23T13:15:39;8.38;;;5.75;;
11451;SDS011;5782;47.872;11.478;2022-07-23T13:18:05;7.90;;;5.97;;
11451;SDS011;5782;47.872;11.478;2022-07-23T13:20:31;8.35;;;6.00;;
11451;SDS011;5782;47.872;11.478;2022-07-23T13:22:59;7.07;;;5.60;;
11451;SDS011;5782;47.872;11.478;2022-07-23T13:25:25;6.15;;;5.55;;
11451;SDS011;5782;47.872;11.478;2022-07-23T13:27:51;6.05;;;5.32;;
11451;SDS011;5782;47.872;11.478;2022-07-23T13:30:17;6.28;;;5.50;;
11451;SDS011;5782;47.872;11.478;2022-07-23T13:32:43;8.32;;;5.88;;
11451;SDS011;5782;47.872;11.478;2022-07-23T13:35:09;6.50;;;5.32;;
11451;SDS011;5782;47.872;11.478;2022-07-23T13:37:35;5.95;;;5.30;;
11451;SDS011;5782;47.872;11.478;2022-07-23T13:40:01;5.93;;;5.22;;
11451;SDS011;5782;47.872;11.478;2022-07-23T13:42:27;5.75;;;5.10;;
11451;SDS011;5782;47.872;11.478;2022-07-23T13:44:53;7.93;;;5.60;;
11451;SDS011;5782;47.872;11.478;2022-07-23T13:47:19;6.20;;;5.60;;
11451;SDS011;5782;47.872;11.478;2022-07-23T13:49:45;7.45;;;5.75;;
11451;SDS011;5782;47.872;11.478;2022-07-23T13:52:11;6.07;;;5.32;;
11451;SDS011;5782;47.872;11.478;2022-07-23T13:54:37;6.22;;;5.63;;
11451;SDS011;5782;47.872;11.478;2022-07-23T13:57:03;6.07;;;5.47;;
11451;SDS011;5782;47.872;11.478;2022-07-23T13:59:29;5.80;;;5.20;;
11451;SDS011;5782;47.872;11.478;2022-07-23T14:01:55;6.75;;;5.80;;
11451;SDS011;5782;47.872;11.478;2022-07-23T14:04:22;6.80;;;5.50;;
11451;SDS011;5782;47.872;11.478;2022-07-23T14:06:48;6.35;;;5.75;;
11451;SDS011;5782;47.872;11.478;2022-07-23T14:09:14;6.70;;;6.00;;
11451;SDS011;5782;47.872;11.478;2022-07-23T14:11:40;6.55;;;5.82;;
11451;SDS011;5782;47.872;11.478;2022-07-23T14:14:06;6.15;;;5.55;;
11451;SDS011;5782;47.872;11.478;2022-07-23T14:16:32;6.40;;;5.70;;
11451;SDS011;5782;47.872;11.478;2022-07-23T14:18:58;7.07;;;6.05;;
11451;SDS011;5782;47.872;11.478;2022-07-23T14:21:24;6.45;;;5.85;;
11451;SDS011;5782;47.872;11.478;2022-07-23T14:23:50;7.22;;;6.60;;
11451;SDS011;5782;47.872;11.478;2022-07-23T14:26:16;6.20;;;5.60;;
11451;SDS011;5782;47.872;11.478;2022-07-23T14:28:42;8.32;;;7.22;;
11451;SDS011;5782;47.872;11.478;2022-07-23T14:31:08;8.38;;;7.53;;
11451;SDS011;5782;47.872;11.478;2022-07-23T14:33:34;7.90;;;7.20;;
11451;SDS011;5782;47.872;11.478;2022-07-23T14:36:00;7.80;;;7.00;;
11451;SDS011;5782;47.872;11.478;2022-07-23T14:38:26;6.28;;;5.68;;
11451;SDS011;5782;47.872;11.478;2022-07-23T14:40:52;7.22;;;6.53;;
11451;SDS011;5782;47.872;11.478;2022-07-23T14:43:18;6.55;;;5.95;;
11451;SDS011;5782;47.872;11.478;2022-07-23T14:45:44;6.80;;;6.20;;
11451;SDS011;5782;47.872;11.478;2022-07-23T14:48:10;7.60;;;6.10;;
11451;SDS011;5782;47.872;11.478;2022-07-23T14:50:36;6.85;;;6.15;;
11451;SDS011;5782;47.872;11.478;2022-07-23T14:53:02;6.80;;;6.20;;
11451;SDS011;5782;47.872;11.478;2022-07-23T14:55:30;6.38;;;5.78;;
11451;SDS011;5782;47.872;11.478;2022-07-23T14:57:56;7.38;;;5.93;;
11451;SDS011;5782;47.872;11.478;2022-07-23T15:00:22;6.93;;;6.32;;
11451;SDS011;5782;47.872;11.478;2022-07-23T15:02:48;6.50;;;5.88;;
11451;SDS011;5782;47.872;11.478;2022-07-23T15:05:14;7.05;;;6.30;;
11451;SDS011;5782;47.872;11.478;2022-07-23T15:07:40;6.88;;;6.18;;
11451;SDS011;5782;47.872;11.478;2022-07-23T15:10:06;7.43;;;6.72;;
11451;SDS011;5782;47.872;11.478;2022-07-23T15:12:33;7.05;;;6.35;;
11451;SDS011;5782;47.872;11.478;2022-07-23T15:14:59;7.22;;;6.53;;
11451;SDS011;5782;47.872;11.478;2022-07-23T15:17:25;7.20;;;6.50;;
11451;SDS011;5782;47.872;11.478;2022-07-23T15:19:51;7.63;;;6.78;;
11451;SDS011;5782;47.872;11.478;2022-07-23T15:22:17;7.82;;;6.95;;
11451;SDS011;5782;47.872;11.478;2022-07-23T15:24:43;7.05;;;6.35;;
11451;SDS011;5782;47.872;11.478;2022-07-23T15:27:09;7.55;;;6.85;;
11451;SDS011;5782;47.872;11.478;2022-07-23T15:29:35;7.35;;;6.75;;
11451;SDS011;5782;47.872;11.478;2022-07-23T15:32:01;7.70;;;7.00;;
11451;SDS011;5782;47.872;11.478;2022-07-23T15:34:27;7.43;;;6.72;;
11451;SDS011;5782;47.872;11.478;2022-07-23T15:36:53;7.85;;;7.05;;